createdAt,value
2023-05-17T00:01:07.534Z,1.90
2023-05-17T00:03:34.159Z,2.47
2023-05-17T00:06:00.846Z,2.00
2023-05-17T00:08:27.574Z,1.90
2023-05-17T00:10:54.264Z,2.00
2023-05-17T00:13:21.021Z,2.38
2023-05-17T00:15:47.613Z,2.30
2023-05-17T00:18:14.286Z,1.90
2023-05-17T00:20:40.988Z,2.13
2023-05-17T00:23:07.783Z,2.42
2023-05-17T00:25:34.448Z,2.03
2023-05-17T00:28:01.269Z,2.28
2023-05-17T00:32:54.430Z,1.88
2023-05-17T00:35:21.317Z,1.92
2023-05-17T00:37:48.331Z,2.22
2023-05-17T00:42:42.858Z,2.60
2023-05-17T00:47:39.036Z,2.03
2023-05-17T00:50:06.872Z,2.40
2023-05-17T00:52:33.635Z,2.20
2023-05-17T00:55:00.371Z,2.45
2023-05-17T00:57:29.280Z,2.08
2023-05-17T00:59:56.540Z,2.47
2023-05-17T01:02:23.123Z,2.50
2023-05-17T01:04:50.282Z,2.58
2023-05-17T01:07:18.011Z,2.33
2023-05-17T01:09:44.867Z,2.30
2023-05-17T01:15:16.010Z,2.40
2023-05-17T01:18:00.412Z,2.30
2023-05-17T01:20:29.675Z,2.45
2023-05-17T01:23:14.890Z,2.60
2023-05-17T01:26:00.345Z,2.40
2023-05-17T01:28:27.826Z,2.40
2023-05-17T01:30:56.226Z,2.83
2023-05-17T01:33:23.581Z,2.22
2023-05-17T01:35:50.290Z,2.63
2023-05-17T01:38:16.855Z,2.63
2023-05-17T01:40:56.115Z,2.67
2023-05-17T01:43:35.592Z,2.60
2023-05-17T01:46:26.842Z,3.00
2023-05-17T01:49:06.358Z,2.53
2023-05-17T01:51:37.158Z,2.50
2023-05-17T01:54:11.455Z,3.10
2023-05-17T01:56:43.029Z,2.90
2023-05-17T01:59:15.076Z,2.95
2023-05-17T02:01:42.704Z,3.28
2023-05-17T02:04:10.529Z,3.30
2023-05-17T02:06:37.368Z,3.22
2023-05-17T02:09:04.151Z,3.35
2023-05-17T02:11:30.953Z,3.85
2023-05-17T02:13:59.034Z,4.00
2023-05-17T02:16:25.846Z,4.13
2023-05-17T02:18:52.544Z,3.75
2023-05-17T02:21:20.201Z,3.65
2023-05-17T02:23:46.841Z,3.72
2023-05-17T02:26:13.446Z,4.13
2023-05-17T02:28:40.075Z,3.50
2023-05-17T02:31:09.008Z,5.85
2023-05-17T02:33:36.041Z,3.40
2023-05-17T02:36:02.712Z,4.07
2023-05-17T02:38:29.446Z,3.63
2023-05-17T02:40:56.037Z,3.83
2023-05-17T02:43:22.964Z,3.53
2023-05-17T02:48:16.433Z,3.28
2023-05-17T02:53:09.833Z,3.08
2023-05-17T02:55:36.419Z,4.30
2023-05-17T02:58:04.050Z,3.90
2023-05-17T03:00:30.645Z,3.10
2023-05-17T03:02:57.324Z,3.90
2023-05-17T03:05:23.985Z,3.72
2023-05-17T03:07:50.635Z,3.33
2023-05-17T03:10:17.956Z,3.67
2023-05-17T03:12:44.858Z,3.50
2023-05-17T03:17:38.272Z,3.38
2023-05-17T03:20:06.678Z,3.75
2023-05-17T03:22:33.296Z,3.45
2023-05-17T03:24:59.907Z,3.35
2023-05-17T03:27:26.595Z,3.75
2023-05-17T03:29:53.261Z,3.60
2023-05-17T03:32:19.880Z,4.05
2023-05-17T03:34:46.503Z,3.70
2023-05-17T03:37:13.163Z,3.90
2023-05-17T03:39:39.954Z,3.92
2023-05-17T03:42:06.674Z,4.25
2023-05-17T03:44:33.383Z,4.43
2023-05-17T03:47:00.021Z,4.35
2023-05-17T03:49:26.593Z,4.10
2023-05-17T03:51:53.204Z,3.90
2023-05-17T03:54:19.819Z,4.40
2023-05-17T03:56:49.095Z,4.25
2023-05-17T03:59:16.943Z,4.32
2023-05-17T04:01:44.074Z,4.22
2023-05-17T04:04:11.249Z,4.50
2023-05-17T04:06:38.842Z,4.50
2023-05-17T04:09:05.508Z,4.70
2023-05-17T04:11:33.213Z,4.53
2023-05-17T04:14:00.097Z,4.80
2023-05-17T04:16:28.702Z,4.22
2023-05-17T04:18:55.476Z,4.07
2023-05-17T04:21:22.512Z,4.75
2023-05-17T04:26:16.627Z,5.28
2023-05-17T04:28:43.377Z,5.03
2023-05-17T04:31:10.830Z,4.85
2023-05-17T04:33:37.661Z,5.80
2023-05-17T04:36:04.708Z,4.90
2023-05-17T04:38:32.565Z,6.80
2023-05-17T04:41:06.800Z,4.72
2023-05-17T04:43:33.691Z,5.28
2023-05-17T04:46:00.698Z,5.03
2023-05-17T04:50:54.685Z,5.13
2023-05-17T04:53:55.677Z,5.15
2023-05-17T04:56:22.933Z,6.03
2023-05-17T04:58:50.453Z,4.78
2023-05-17T05:01:18.759Z,5.68
2023-05-17T05:03:45.472Z,5.82
2023-05-17T05:06:12.314Z,5.63
2023-05-17T05:08:38.901Z,5.40
2023-05-17T05:11:05.582Z,5.65
2023-05-17T05:13:32.259Z,5.70
2023-05-17T05:15:58.908Z,6.28
2023-05-17T05:18:25.815Z,5.63
2023-05-17T05:20:52.606Z,7.47
2023-05-17T05:23:19.247Z,5.82
2023-05-17T05:25:45.945Z,6.32
2023-05-17T05:28:12.539Z,6.28
2023-05-17T05:30:39.751Z,7.20
2023-05-17T05:33:06.484Z,6.57
2023-05-17T05:35:33.393Z,7.18
2023-05-17T05:38:00.062Z,7.07
2023-05-17T05:40:26.874Z,7.10
2023-05-17T05:45:21.852Z,7.00
2023-05-17T05:47:48.844Z,6.90
2023-05-17T05:50:15.681Z,7.63
2023-05-17T05:52:42.320Z,7.70
2023-05-17T05:55:09.342Z,7.85
2023-05-17T05:57:36.082Z,7.07
2023-05-17T06:00:03.150Z,8.02
2023-05-17T06:02:30.284Z,8.55
2023-05-17T06:04:56.956Z,8.68
2023-05-17T06:07:23.501Z,9.05
2023-05-17T06:09:50.047Z,8.50
2023-05-17T06:12:17.873Z,9.20
2023-05-17T06:14:44.421Z,9.55
2023-05-17T06:17:10.955Z,11.52
2023-05-17T06:19:37.825Z,9.32
2023-05-17T06:22:04.677Z,10.05
2023-05-17T06:24:31.245Z,10.73
2023-05-17T06:26:57.799Z,10.38
2023-05-17T06:29:24.598Z,11.00
2023-05-17T06:31:51.185Z,10.57
2023-05-17T06:34:17.819Z,11.77
2023-05-17T06:36:44.441Z,12.20
2023-05-17T06:39:11.307Z,12.45
2023-05-17T06:44:04.594Z,14.05
2023-05-17T06:46:31.133Z,14.65
2023-05-17T06:48:57.977Z,15.60
2023-05-17T06:51:24.851Z,14.43
2023-05-17T06:53:51.578Z,15.40
2023-05-17T06:56:18.128Z,15.75
2023-05-17T06:58:44.688Z,13.68
2023-05-17T07:01:11.381Z,14.45
2023-05-17T07:03:38.014Z,17.50
2023-05-17T07:06:04.851Z,16.73
2023-05-17T07:08:31.513Z,16.13
2023-05-17T07:10:58.160Z,15.20
2023-05-17T07:13:24.821Z,14.43
2023-05-17T07:15:51.518Z,15.10
2023-05-17T07:18:18.186Z,13.98
2023-05-17T07:20:44.797Z,12.48
2023-05-17T07:23:11.379Z,13.65
2023-05-17T07:25:39.078Z,12.25
2023-05-17T07:28:05.845Z,13.55
2023-05-17T07:33:01.552Z,8.45
2023-05-17T07:40:22.237Z,8.60
2023-05-17T07:42:48.914Z,7.75
2023-05-17T07:45:16.207Z,9.25
2023-05-17T07:47:45.406Z,8.05
2023-05-17T07:50:12.439Z,7.57
2023-05-17T07:52:39.036Z,7.95
2023-05-17T07:55:06.120Z,8.50
2023-05-17T07:57:32.788Z,7.53
2023-05-17T08:02:25.925Z,7.43
2023-05-17T08:07:19.099Z,7.72
2023-05-17T08:09:45.647Z,7.57
2023-05-17T08:12:12.257Z,8.20
2023-05-17T08:14:39.946Z,7.18
2023-05-17T08:17:06.549Z,7.22
2023-05-17T08:21:59.952Z,6.47
2023-05-17T08:24:26.569Z,6.10
2023-05-17T08:29:19.810Z,7.38
2023-05-17T08:31:46.369Z,6.57
2023-05-17T08:34:13.008Z,8.00
2023-05-17T08:39:08.224Z,7.32
2023-05-17T08:41:37.244Z,6.53
2023-05-17T08:44:04.486Z,6.70
2023-05-17T08:46:37.025Z,6.35
2023-05-17T08:49:06.270Z,5.10
2023-05-17T08:51:32.940Z,4.85
2023-05-17T08:58:57.877Z,4.30
2023-05-17T09:01:27.029Z,4.53
2023-05-17T09:03:54.784Z,4.45
2023-05-17T09:06:23.081Z,5.13
2023-05-17T09:08:55.093Z,4.22
2023-05-17T09:11:34.096Z,5.00
2023-05-17T09:14:03.152Z,3.80
2023-05-17T09:16:35.413Z,3.60
2023-05-17T09:19:04.360Z,4.00
2023-05-17T09:21:31.956Z,4.05
2023-05-17T09:26:41.037Z,3.20
2023-05-17T09:29:15.973Z,3.40
2023-05-17T09:31:44.007Z,3.88
2023-05-17T09:34:11.235Z,3.75
2023-05-17T09:36:39.460Z,2.90
2023-05-17T09:39:08.118Z,2.50
2023-05-17T09:41:48.173Z,2.30
2023-05-17T09:44:16.540Z,2.13
2023-05-17T09:46:48.465Z,2.95
2023-05-17T09:49:16.541Z,2.58
2023-05-17T09:51:45.585Z,3.13
2023-05-17T09:54:12.454Z,2.40
2023-05-17T09:56:39.946Z,2.55
2023-05-17T09:59:16.743Z,3.40
2023-05-17T10:01:45.605Z,2.35
2023-05-17T10:04:13.683Z,2.60
2023-05-17T10:09:14.171Z,2.15
2023-05-17T10:11:46.010Z,2.30
2023-05-17T10:14:32.005Z,3.13
2023-05-17T10:16:59.172Z,2.38
2023-05-17T10:19:26.262Z,2.33
2023-05-17T10:21:53.968Z,2.03
2023-05-17T10:24:21.699Z,2.33
2023-05-17T10:26:50.617Z,2.40
2023-05-17T10:29:17.416Z,2.15
2023-05-17T10:31:45.486Z,2.17
2023-05-17T10:34:16.031Z,2.58
2023-05-17T10:36:44.126Z,2.15
2023-05-17T10:39:11.855Z,2.60
2023-05-17T10:41:43.446Z,2.45
2023-05-17T10:44:14.046Z,2.25
2023-05-17T10:46:40.828Z,2.55
2023-05-17T10:49:07.678Z,2.22
2023-05-17T10:51:36.795Z,2.78
2023-05-17T10:54:10.488Z,2.70
2023-05-17T10:56:41.499Z,2.55
2023-05-17T10:59:15.026Z,3.13
2023-05-17T11:02:03.626Z,2.25
2023-05-17T11:04:36.538Z,2.47
2023-05-17T11:07:28.063Z,2.70
2023-05-17T11:10:03.721Z,2.55
2023-05-17T11:12:39.259Z,2.78
2023-05-17T11:15:12.089Z,2.55
2023-05-17T11:17:44.811Z,2.55
2023-05-17T11:20:26.967Z,2.67
2023-05-17T11:23:01.687Z,2.80
2023-05-17T11:25:31.108Z,3.13
2023-05-17T11:27:59.445Z,3.20
2023-05-17T11:30:29.096Z,2.47
2023-05-17T11:33:11.118Z,2.92
2023-05-17T11:35:44.758Z,2.58
2023-05-17T11:38:22.244Z,2.75
2023-05-17T11:40:50.978Z,2.55
2023-05-17T11:43:19.858Z,3.28
2023-05-17T11:45:58.174Z,3.15
2023-05-17T11:48:26.656Z,2.97
2023-05-17T11:50:55.480Z,3.13
2023-05-17T11:53:22.478Z,3.00
2023-05-17T11:55:50.899Z,2.85
2023-05-17T11:58:25.000Z,2.75
2023-05-17T12:00:57.994Z,2.67
2023-05-17T12:06:13.730Z,2.85
2023-05-17T12:08:43.872Z,2.97
2023-05-17T12:11:17.809Z,2.97
2023-05-17T12:13:46.952Z,2.88
2023-05-17T12:16:17.865Z,3.00
2023-05-17T12:21:21.974Z,3.33
2023-05-17T12:23:52.534Z,3.20
2023-05-17T12:26:22.010Z,3.28
2023-05-17T12:28:57.830Z,3.00
2023-05-17T12:31:36.957Z,3.17
2023-05-17T12:34:06.490Z,2.95
2023-05-17T12:36:33.998Z,3.00
2023-05-17T12:39:02.395Z,3.20
2023-05-17T12:41:30.617Z,3.00
2023-05-17T12:44:13.652Z,3.33
2023-05-17T12:46:42.046Z,3.10
2023-05-17T12:49:09.844Z,3.53
2023-05-17T12:51:42.481Z,3.15
2023-05-17T12:54:09.300Z,3.47
2023-05-17T12:56:36.316Z,3.30
2023-05-17T12:59:16.854Z,3.08
2023-05-17T13:01:44.483Z,3.80
2023-05-17T13:04:12.445Z,4.05
2023-05-17T13:06:51.404Z,3.40
2023-05-17T13:09:20.799Z,3.30
2023-05-17T13:11:55.559Z,4.03
2023-05-17T13:14:45.748Z,2.90
2023-05-17T13:17:17.413Z,2.92
2023-05-17T13:19:47.307Z,3.22
2023-05-17T13:22:15.835Z,3.45
2023-05-17T13:24:44.379Z,3.20
2023-05-17T13:27:12.459Z,3.13
2023-05-17T13:29:42.770Z,3.28
2023-05-17T13:32:12.168Z,3.65
2023-05-17T13:34:39.854Z,2.95
2023-05-17T13:37:10.277Z,3.20
2023-05-17T13:39:38.640Z,3.75
2023-05-17T13:42:05.788Z,3.72
2023-05-17T13:44:32.630Z,3.67
2023-05-17T13:46:59.559Z,3.67
2023-05-17T13:49:26.876Z,3.20
2023-05-17T13:51:53.535Z,3.25
2023-05-17T13:54:26.243Z,3.83
2023-05-17T13:56:53.874Z,3.40
2023-05-17T13:59:20.528Z,3.28
2023-05-17T14:01:47.190Z,3.75
2023-05-17T14:04:14.045Z,3.20
2023-05-17T14:06:42.588Z,2.47
2023-05-17T14:09:10.484Z,3.80
2023-05-17T14:11:37.243Z,3.08
2023-05-17T14:14:04.505Z,3.47
2023-05-17T14:16:31.406Z,3.70
2023-05-17T14:19:03.543Z,3.72
2023-05-17T14:21:32.852Z,3.20
2023-05-17T14:23:59.496Z,3.35
2023-05-17T14:26:26.818Z,3.42
2023-05-17T14:28:53.853Z,3.70
2023-05-17T14:31:21.431Z,3.92
2023-05-17T14:33:49.731Z,2.90
2023-05-17T14:36:19.262Z,3.75
2023-05-17T14:38:47.031Z,3.60
2023-05-17T14:41:13.901Z,3.60
2023-05-17T14:43:40.683Z,3.50
2023-05-17T14:46:07.331Z,3.05
2023-05-17T14:48:34.368Z,3.15
2023-05-17T14:51:03.474Z,3.28
2023-05-17T14:53:30.394Z,4.25
2023-05-17T14:55:58.073Z,3.75
2023-05-17T14:58:25.375Z,3.85
2023-05-17T15:01:05.797Z,3.38
2023-05-17T15:03:34.629Z,2.88
2023-05-17T15:06:09.529Z,3.08
2023-05-17T15:08:39.544Z,3.88
2023-05-17T15:11:06.313Z,2.85
2023-05-17T15:13:33.174Z,3.33
2023-05-17T15:16:00.284Z,3.30
2023-05-17T15:18:27.260Z,3.15
2023-05-17T15:20:53.903Z,3.35
2023-05-17T15:23:21.180Z,2.90
2023-05-17T15:25:47.908Z,3.05
2023-05-17T15:28:14.812Z,3.10
2023-05-17T15:30:42.300Z,3.00
2023-05-17T15:33:09.981Z,3.08
2023-05-17T15:35:41.981Z,3.38
2023-05-17T15:38:08.972Z,2.75
2023-05-17T15:40:35.950Z,2.90
2023-05-17T15:43:02.675Z,2.50
2023-05-17T15:45:32.829Z,2.47
2023-05-17T15:48:03.711Z,3.10
2023-05-17T15:50:30.487Z,2.67
2023-05-17T15:52:57.252Z,2.55
2023-05-17T15:55:24.065Z,2.55
2023-05-17T15:57:50.713Z,2.80
2023-05-17T16:00:17.885Z,2.35
2023-05-17T16:02:44.734Z,2.90
2023-05-17T16:05:11.564Z,3.00
2023-05-17T16:07:38.280Z,2.75
2023-05-17T16:10:06.204Z,2.40
2023-05-17T16:12:33.022Z,2.72
2023-05-17T16:15:01.195Z,2.10
2023-05-17T16:17:28.039Z,2.97
2023-05-17T16:19:55.069Z,2.28
2023-05-17T16:22:21.948Z,2.22
2023-05-17T16:24:52.542Z,2.50
2023-05-17T16:27:19.798Z,2.40
2023-05-17T16:29:46.740Z,2.65
2023-05-17T16:32:14.596Z,2.30
2023-05-17T16:34:41.624Z,2.75
2023-05-17T16:37:08.405Z,2.40
2023-05-17T16:39:35.078Z,2.28
2023-05-17T16:42:02.331Z,2.28
2023-05-17T16:44:29.826Z,2.42
2023-05-17T16:46:56.616Z,2.65
2023-05-17T16:49:23.349Z,2.60
2023-05-17T16:51:52.062Z,2.10
2023-05-17T16:54:18.803Z,2.25
2023-05-17T16:56:46.558Z,1.83
2023-05-17T16:59:13.296Z,2.20
2023-05-17T17:01:40.395Z,2.63
2023-05-17T17:04:07.258Z,2.40
2023-05-17T17:06:34.069Z,2.13
2023-05-17T17:09:01.781Z,2.15
2023-05-17T17:11:28.698Z,2.35
2023-05-17T17:13:55.434Z,2.33
2023-05-17T17:16:43.391Z,2.30
2023-05-17T17:19:10.418Z,2.22
2023-05-17T17:21:38.610Z,2.20
2023-05-17T17:24:09.899Z,2.10
2023-05-17T17:26:36.889Z,2.30
2023-05-17T17:29:04.772Z,2.60
2023-05-17T17:31:32.276Z,2.03
2023-05-17T17:34:00.147Z,2.20
2023-05-17T17:36:27.260Z,2.08
2023-05-17T17:38:54.298Z,2.50
2023-05-17T17:41:21.501Z,2.42
2023-05-17T17:43:49.710Z,2.50
2023-05-17T17:46:17.280Z,2.45
2023-05-17T17:51:24.814Z,2.30
2023-05-17T17:53:53.447Z,2.35
2023-05-17T17:56:20.391Z,2.88
2023-05-17T17:58:48.427Z,2.42
2023-05-17T18:01:15.374Z,2.72
2023-05-17T18:03:42.355Z,2.67
2023-05-17T18:06:09.466Z,2.80
2023-05-17T18:08:36.122Z,2.92
2023-05-17T18:11:02.869Z,2.20
2023-05-17T18:13:29.579Z,3.33
2023-05-17T18:15:56.698Z,2.63
2023-05-17T18:18:23.281Z,2.33
2023-05-17T18:20:49.894Z,2.28
2023-05-17T18:23:16.436Z,2.45
2023-05-17T18:28:09.449Z,2.20
2023-05-17T18:35:29.185Z,2.13
2023-05-17T18:40:22.333Z,2.90
2023-05-17T18:45:15.524Z,3.10
2023-05-17T18:47:42.158Z,4.85
2023-05-17T18:50:09.185Z,3.67
2023-05-17T18:52:35.768Z,3.00
2023-05-17T18:57:29.737Z,2.97
2023-05-17T18:59:56.477Z,2.53
2023-05-17T19:02:23.056Z,2.17
2023-05-17T19:07:16.115Z,2.65
2023-05-17T19:12:09.802Z,3.05
2023-05-17T19:14:38.456Z,3.75
2023-05-17T19:17:05.469Z,2.90
2023-05-17T19:19:32.099Z,2.53
2023-05-17T19:24:28.175Z,2.67
2023-05-17T19:26:54.726Z,2.45
2023-05-17T19:29:22.361Z,3.30
2023-05-17T19:31:48.973Z,2.55
2023-05-17T19:36:42.076Z,2.45
2023-05-17T19:39:08.642Z,2.78
2023-05-17T19:41:35.239Z,2.33
2023-05-17T19:46:28.571Z,3.05
2023-05-17T19:48:57.359Z,2.63
2023-05-17T19:51:23.929Z,3.83
2023-05-17T19:53:53.341Z,3.28
2023-05-17T19:56:22.831Z,3.17
2023-05-17T19:58:49.454Z,2.80
2023-05-17T20:03:42.773Z,2.75
2023-05-17T20:08:41.904Z,2.25
2023-05-17T20:11:08.570Z,2.70
2023-05-17T20:16:01.711Z,3.50
2023-05-17T20:20:56.834Z,2.65
2023-05-17T20:23:23.411Z,2.60
2023-05-17T20:25:49.996Z,2.50
2023-05-17T20:28:16.604Z,2.60
2023-05-17T20:30:45.155Z,2.75
2023-05-17T20:33:11.725Z,3.08
2023-05-17T20:35:38.291Z,2.97
2023-05-17T20:38:04.840Z,2.58
2023-05-17T20:40:31.602Z,2.30
2023-05-17T20:42:58.837Z,2.83
2023-05-17T20:45:27.549Z,2.35
2023-05-17T20:47:54.133Z,2.38
2023-05-17T20:50:21.694Z,2.85
2023-05-17T20:52:48.516Z,3.33
2023-05-17T20:55:15.123Z,3.00
2023-05-17T20:57:42.146Z,3.63
2023-05-17T21:00:12.240Z,3.47
2023-05-17T21:02:39.174Z,3.38
2023-05-17T21:05:05.824Z,2.78
2023-05-17T21:07:32.388Z,3.17
2023-05-17T21:09:58.984Z,3.45
2023-05-17T21:12:25.606Z,3.75
2023-05-17T21:15:03.660Z,3.13
2023-05-17T21:17:34.874Z,3.65
2023-05-17T21:20:01.415Z,3.45
2023-05-17T21:22:27.995Z,3.92
2023-05-17T21:24:54.564Z,6.20
2023-05-17T21:27:21.141Z,3.63
2023-05-17T21:29:47.704Z,3.60
2023-05-17T21:32:14.272Z,4.25
2023-05-17T21:34:43.358Z,4.05
2023-05-17T21:37:09.917Z,4.07
2023-05-17T21:39:36.468Z,3.40
2023-05-17T21:42:03.336Z,4.13
2023-05-17T21:46:57.114Z,3.55
2023-05-17T21:49:25.569Z,3.53
2023-05-17T21:51:52.167Z,3.75
2023-05-17T21:54:19.232Z,3.22
2023-05-17T21:56:45.872Z,3.67
2023-05-17T21:59:12.432Z,3.50
2023-05-17T22:01:39.121Z,3.50
2023-05-17T22:04:06.039Z,3.88
2023-05-17T22:08:59.144Z,2.72
2023-05-17T22:11:27.436Z,3.17
2023-05-17T22:13:54.350Z,3.53
2023-05-17T22:18:53.872Z,4.30
2023-05-17T22:21:20.526Z,3.10
2023-05-17T22:23:47.066Z,3.55
2023-05-17T22:26:13.669Z,3.55
2023-05-17T22:28:40.221Z,4.05
2023-05-17T22:31:07.661Z,3.22
2023-05-17T22:33:35.754Z,3.78
2023-05-17T22:36:03.755Z,3.60
2023-05-17T22:38:30.337Z,3.70
2023-05-17T22:40:56.892Z,3.63
2023-05-17T22:43:25.992Z,3.50
2023-05-17T22:45:52.759Z,3.80
2023-05-17T22:48:20.222Z,3.53
2023-05-17T22:50:47.309Z,2.97
2023-05-17T22:53:18.680Z,3.25
2023-05-17T22:55:48.902Z,3.17
2023-05-17T22:58:16.028Z,3.30
2023-05-17T23:00:42.649Z,3.08
2023-05-17T23:03:09.253Z,2.88
2023-05-17T23:05:36.993Z,3.53
2023-05-17T23:08:04.755Z,3.15
2023-05-17T23:10:31.313Z,3.60
2023-05-17T23:12:58.337Z,3.35
2023-05-17T23:15:25.820Z,3.20
2023-05-17T23:17:53.054Z,3.38
2023-05-17T23:20:20.404Z,3.70
2023-05-17T23:22:49.933Z,4.63
2023-05-17T23:25:16.466Z,3.72
2023-05-17T23:27:44.614Z,4.05
2023-05-17T23:30:11.591Z,3.60
2023-05-17T23:32:38.246Z,3.80
2023-05-17T23:35:05.201Z,3.42
2023-05-17T23:39:59.300Z,3.42
2023-05-17T23:42:26.638Z,3.28
2023-05-17T23:44:53.536Z,3.40
2023-05-17T23:47:20.078Z,3.30
2023-05-17T23:49:46.627Z,4.20
2023-05-17T23:52:13.321Z,3.38
2023-05-17T23:54:41.566Z,3.60
2023-05-17T23:57:09.002Z,3.20
2023-05-17T23:59:36.708Z,3.38
